Terminal Aerodrome Forecast
Issued by NWS

Home | Current Version | Previous Version | Text Only | Print | Product List | Glossary On
Versions: 1 2 3 4 5 6 7 8 9 10 11 12 13 14 15 16 17 18 19 20 21 22 23 24 25 26 27
777
FTAK31 PANC 221847 AAB
TAFADQ
TAF AMD
PADQ 221847Z 2219/2318 10009KT 2SM BR BKN007 OVC012
      TEMPO 2219/2220 1/2SM FG OVC002
     FM222100 10008KT P6SM SCT007 OVC012
     FM230200 11013KT 3SM -RA BR OVC008
     FM231200 12008KT P6SM BKN015 OVC040=

USA.gov is the U.S. government's official web portal to all federal, state and local government web resources and services.